createdAt,value
2018-04-15T00:00:05.374Z,978.62
2018-04-15T00:01:05.323Z,978.76
2018-04-15T00:02:05.772Z,978.71
2018-04-15T00:03:05.595Z,978.65
2018-04-15T00:04:05.517Z,978.65
2018-04-15T00:05:05.382Z,978.65
2018-04-15T00:06:06.083Z,978.68
2018-04-15T00:07:05.335Z,978.65
2018-04-15T00:08:05.477Z,978.56
2018-04-15T00:09:05.099Z,978.56
2018-04-15T00:10:05.880Z,978.53
2018-04-15T00:11:05.828Z,978.62
2018-04-15T00:12:10.853Z,978.59
2018-04-15T00:13:05.173Z,978.54
2018-04-15T00:14:05.159Z,978.62
2018-04-15T00:15:05.394Z,978.48
2018-04-15T00:16:05.066Z,978.54
2018-04-15T00:17:05.818Z,978.56
2018-04-15T00:18:04.983Z,978.48
2018-04-15T00:19:05.540Z,978.54
2018-04-15T00:20:05.294Z,978.48
2018-04-15T00:21:05.335Z,978.35
2018-04-15T00:22:05.944Z,978.43
2018-04-15T00:23:05.722Z,978.43
2018-04-15T00:24:05.838Z,978.38
2018-04-15T00:25:05.511Z,978.35
2018-04-15T00:26:05.455Z,978.35
2018-04-15T00:27:05.627Z,978.38
2018-04-15T00:28:06.216Z,978.51
2018-04-15T00:29:05.663Z,978.29
2018-04-15T00:30:05.706Z,978.44
2018-04-15T00:31:05.023Z,978.21
2018-04-15T00:32:05.902Z,978.41
2018-04-15T00:33:11.022Z,978.35
2018-04-15T00:34:05.694Z,978.29
2018-04-15T00:35:05.377Z,978.29
2018-04-15T00:36:05.568Z,978.29
2018-04-15T00:37:05.306Z,978.27
2018-04-15T00:38:05.810Z,978.27
2018-04-15T00:39:05.633Z,978.27
2018-04-15T00:40:05.506Z,978.27
2018-04-15T00:41:05.305Z,978.27
2018-04-15T00:42:05.372Z,978.21
2018-04-15T00:43:05.570Z,978.18
2018-04-15T00:44:05.506Z,978.18
2018-04-15T00:45:05.214Z,978.18
2018-04-15T00:46:05.101Z,978.21
2018-04-15T00:47:05.251Z,978.10
2018-04-15T00:48:05.992Z,978.04
2018-04-15T00:49:05.702Z,977.95
2018-04-15T00:50:05.640Z,977.98
2018-04-15T00:51:05.367Z,977.90
2018-04-15T00:52:05.073Z,977.93
2018-04-15T00:53:05.485Z,978.04
2018-04-15T00:54:05.889Z,977.87
2018-04-15T00:55:05.024Z,977.90
2018-04-15T00:56:05.204Z,977.78
2018-04-15T00:57:05.543Z,977.95
2018-04-15T00:58:05.828Z,977.84
2018-04-15T00:59:05.870Z,977.73
2018-04-15T01:00:05.619Z,977.84
2018-04-15T01:01:05.409Z,977.76
2018-04-15T01:02:05.092Z,977.84
2018-04-15T01:03:05.688Z,977.87
2018-04-15T01:04:05.299Z,977.84
2018-04-15T01:05:06.012Z,977.96
2018-04-15T01:06:05.311Z,977.90
2018-04-15T01:07:10.161Z,977.85
2018-04-15T01:08:05.680Z,977.76
2018-04-15T01:09:05.450Z,977.88
2018-04-15T01:10:05.826Z,977.88
2018-04-15T01:11:05.959Z,977.85
2018-04-15T01:12:05.613Z,977.91
2018-04-15T01:13:05.353Z,977.85
2018-04-15T01:14:05.394Z,977.77
2018-04-15T01:15:05.741Z,977.88
2018-04-15T01:16:05.723Z,977.74
2018-04-15T01:17:05.221Z,977.91
2018-04-15T01:18:05.959Z,977.91
2018-04-15T01:19:05.373Z,977.80
2018-04-15T01:20:05.583Z,977.88
2018-04-15T01:21:05.439Z,977.80
2018-04-15T01:22:05.745Z,977.80
2018-04-15T01:23:05.735Z,977.83
2018-04-15T01:24:05.848Z,977.77
2018-04-15T01:25:05.946Z,977.77
2018-04-15T01:26:05.121Z,977.80
2018-04-15T01:27:05.593Z,977.77
2018-04-15T01:28:05.553Z,977.85
2018-04-15T01:29:05.695Z,977.85
2018-04-15T01:30:05.597Z,977.85
2018-04-15T01:31:05.281Z,977.88
2018-04-15T01:32:05.365Z,977.86
2018-04-15T01:33:05.455Z,977.88
2018-04-15T01:34:05.852Z,977.88
2018-04-15T01:35:05.910Z,977.71
2018-04-15T01:36:05.786Z,977.91
2018-04-15T01:37:05.620Z,977.88
2018-04-15T01:38:05.650Z,977.66
2018-04-15T01:39:05.319Z,977.77
2018-04-15T01:40:05.151Z,977.85
2018-04-15T01:41:04.928Z,977.77
2018-04-15T01:42:05.848Z,977.71
2018-04-15T01:43:05.081Z,977.71
2018-04-15T01:44:05.184Z,977.66
2018-04-15T01:45:06.437Z,977.74
2018-04-15T01:46:05.272Z,977.83
2018-04-15T01:47:06.258Z,977.53
2018-04-15T01:48:05.431Z,977.72
2018-04-15T01:49:05.447Z,977.53
2018-04-15T01:50:05.908Z,977.61
2018-04-15T01:51:05.551Z,977.61
2018-04-15T01:52:06.017Z,977.53
2018-04-15T01:53:05.863Z,977.72
2018-04-15T01:54:05.747Z,977.61
2018-04-15T01:55:05.309Z,977.59
2018-04-15T01:56:04.965Z,977.75
2018-04-15T01:57:05.737Z,977.69
2018-04-15T01:58:05.359Z,977.78
2018-04-15T01:59:05.168Z,977.75
2018-04-15T02:00:05.753Z,977.70
2018-04-15T02:01:05.361Z,977.62
2018-04-15T02:02:05.560Z,977.78
2018-04-15T02:03:05.602Z,977.67
2018-04-15T02:04:05.645Z,977.73
2018-04-15T02:05:05.573Z,977.67
2018-04-15T02:06:05.070Z,977.79
2018-04-15T02:07:05.790Z,977.85
2018-04-15T02:08:05.500Z,977.76
2018-04-15T02:09:05.912Z,977.76
2018-04-15T02:10:05.752Z,977.73
2018-04-15T02:11:05.668Z,977.85
2018-04-15T02:12:05.548Z,977.70
2018-04-15T02:13:05.551Z,977.76
2018-04-15T02:14:10.350Z,977.68
2018-04-15T02:15:05.440Z,977.60
2018-04-15T02:16:05.638Z,977.60
2018-04-15T02:17:05.529Z,977.65
2018-04-15T02:18:04.997Z,977.55
2018-04-15T02:19:05.816Z,977.60
2018-04-15T02:20:05.548Z,977.55
2018-04-15T02:21:05.463Z,977.44
2018-04-15T02:22:05.869Z,977.52
2018-04-15T02:23:05.947Z,977.44
2018-04-15T02:24:05.944Z,977.41
2018-04-15T02:25:06.351Z,977.38
2018-04-15T02:26:05.360Z,977.47
2018-04-15T02:27:05.307Z,977.47
2018-04-15T02:28:05.383Z,977.33
2018-04-15T02:29:05.737Z,977.44
2018-04-15T02:30:05.708Z,977.41
2018-04-15T02:31:10.805Z,977.47
2018-04-15T02:32:06.057Z,977.47
2018-04-15T02:33:05.364Z,977.42
2018-04-15T02:34:05.937Z,977.33
2018-04-15T02:35:05.841Z,977.47
2018-04-15T02:36:05.588Z,977.33
2018-04-15T02:37:06.004Z,977.42
2018-04-15T02:38:06.090Z,977.53
2018-04-15T02:39:06.146Z,977.36
2018-04-15T02:40:05.590Z,977.25
2018-04-15T02:41:05.395Z,977.17
2018-04-15T02:42:05.391Z,977.20
2018-04-15T02:43:05.609Z,977.17
2018-04-15T02:44:05.766Z,977.11
2018-04-15T02:45:05.736Z,977.23
2018-04-15T02:46:05.471Z,977.09
2018-04-15T02:47:05.783Z,977.29
2018-04-15T02:48:05.892Z,977.09
2018-04-15T02:49:05.948Z,977.06
2018-04-15T02:50:06.013Z,977.12
2018-04-15T02:51:05.194Z,977.15
2018-04-15T02:52:05.075Z,977.27
2018-04-15T02:53:05.275Z,977.12
2018-04-15T02:54:05.466Z,977.10
2018-04-15T02:55:05.525Z,976.98
2018-04-15T02:56:05.287Z,977.12
2018-04-15T02:57:05.884Z,977.13
2018-04-15T02:58:05.591Z,977.07
2018-04-15T02:59:05.936Z,977.21
2018-04-15T03:00:05.801Z,977.21
2018-04-15T03:01:08.865Z,977.10
2018-04-15T03:02:05.852Z,977.13
2018-04-15T03:03:05.460Z,977.24
2018-04-15T03:04:05.257Z,977.10
2018-04-15T03:05:05.942Z,977.10
2018-04-15T03:06:05.391Z,977.01
2018-04-15T03:07:05.233Z,977.15
2018-04-15T03:08:05.672Z,977.18
2018-04-15T03:09:10.566Z,977.02
2018-04-15T03:10:05.707Z,977.07
2018-04-15T03:11:05.408Z,977.16
2018-04-15T03:12:05.394Z,977.19
2018-04-15T03:13:05.352Z,977.05
2018-04-15T03:14:05.391Z,977.19
2018-04-15T03:15:05.923Z,977.05
2018-04-15T03:16:05.465Z,977.05
2018-04-15T03:17:05.209Z,977.08
2018-04-15T03:18:05.237Z,977.13
2018-04-15T03:19:06.056Z,977.08
2018-04-15T03:20:05.908Z,977.05
2018-04-15T03:21:05.820Z,977.11
2018-04-15T03:22:06.028Z,977.05
2018-04-15T03:23:05.092Z,977.11
2018-04-15T03:24:05.828Z,977.13
2018-04-15T03:25:05.580Z,977.08
2018-04-15T03:26:05.741Z,977.08
2018-04-15T03:27:05.730Z,977.30
2018-04-15T03:28:05.753Z,977.27
2018-04-15T03:29:06.068Z,977.08
2018-04-15T03:30:06.002Z,977.13
2018-04-15T03:31:05.716Z,977.16
2018-04-15T03:32:05.451Z,977.13
2018-04-15T03:33:05.740Z,976.99
2018-04-15T03:34:05.157Z,977.02
2018-04-15T03:35:05.301Z,976.99
2018-04-15T03:36:05.194Z,977.05
2018-04-15T03:37:05.227Z,977.19
2018-04-15T03:38:05.042Z,976.88
2018-04-15T03:39:06.518Z,976.94
2018-04-15T03:40:05.356Z,977.05
2018-04-15T03:41:05.764Z,976.94
2018-04-15T03:42:06.030Z,976.94
2018-04-15T03:43:05.670Z,976.96
2018-04-15T03:44:05.511Z,977.08
2018-04-15T03:45:05.670Z,976.85
2018-04-15T03:46:05.463Z,976.94
2018-04-15T03:47:05.502Z,977.00
2018-04-15T03:48:05.546Z,977.00
2018-04-15T03:49:05.633Z,977.00
2018-04-15T03:50:05.983Z,976.94
2018-04-15T03:51:05.954Z,976.97
2018-04-15T03:52:06.152Z,977.05
2018-04-15T03:53:05.212Z,977.14
2018-04-15T03:54:05.373Z,977.03
2018-04-15T03:55:05.551Z,977.06
2018-04-15T03:56:06.590Z,977.06
2018-04-15T03:57:05.832Z,977.14
2018-04-15T03:58:05.344Z,977.00
2018-04-15T03:59:05.488Z,977.17
2018-04-15T04:00:05.570Z,977.09
2018-04-15T04:01:05.421Z,977.15
2018-04-15T04:02:05.466Z,977.15
2018-04-15T04:03:05.726Z,977.03
2018-04-15T04:04:05.855Z,977.12
2018-04-15T04:05:05.791Z,977.01
2018-04-15T04:06:05.541Z,977.12
2018-04-15T04:07:05.663Z,977.15
2018-04-15T04:08:05.196Z,977.09
2018-04-15T04:09:05.219Z,977.04
2018-04-15T04:10:05.665Z,977.04
2018-04-15T04:11:05.701Z,977.10
2018-04-15T04:12:05.598Z,977.12
2018-04-15T04:13:05.603Z,977.04
2018-04-15T04:14:05.736Z,977.04
2018-04-15T04:15:05.970Z,977.07
2018-04-15T04:16:05.579Z,977.01
2018-04-15T04:17:05.679Z,976.93
2018-04-15T04:18:05.296Z,976.98
2018-04-15T04:19:05.347Z,976.81
2018-04-15T04:20:05.377Z,976.81
2018-04-15T04:21:05.550Z,976.84
2018-04-15T04:22:05.325Z,976.96
2018-04-15T04:23:05.472Z,976.84
2018-04-15T04:24:05.582Z,976.74
2018-04-15T04:25:05.915Z,976.76
2018-04-15T04:26:05.251Z,976.71
2018-04-15T04:27:05.813Z,976.74
2018-04-15T04:28:05.692Z,976.84
2018-04-15T04:29:05.697Z,976.82
2018-04-15T04:30:05.669Z,976.88
2018-04-15T04:31:06.008Z,976.82
2018-04-15T04:32:05.419Z,976.77
2018-04-15T04:33:05.800Z,976.82
2018-04-15T04:34:05.740Z,976.79
2018-04-15T04:35:05.509Z,976.79
2018-04-15T04:36:06.654Z,976.69
2018-04-15T04:37:06.010Z,976.77
2018-04-15T04:38:05.911Z,976.77
2018-04-15T04:39:05.997Z,976.77
2018-04-15T04:40:05.761Z,976.69
2018-04-15T04:41:05.982Z,976.64
2018-04-15T04:42:05.771Z,976.74
2018-04-15T04:43:05.590Z,976.69
2018-04-15T04:44:05.411Z,976.69
2018-04-15T04:45:05.978Z,976.80
2018-04-15T04:46:05.212Z,976.58
2018-04-15T04:47:05.822Z,976.72
2018-04-15T04:48:05.143Z,976.74
2018-04-15T04:49:05.848Z,976.58
2018-04-15T04:50:06.025Z,976.52
2018-04-15T04:51:05.669Z,976.61
2018-04-15T04:52:05.162Z,976.58
2018-04-15T04:53:05.231Z,976.41
2018-04-15T04:54:05.399Z,976.49
2018-04-15T04:55:05.257Z,976.63
2018-04-15T04:56:05.362Z,976.57
2018-04-15T04:57:05.861Z,976.52
2018-04-15T04:58:06.233Z,976.49
2018-04-15T04:59:05.695Z,976.48
2018-04-15T05:00:05.393Z,976.51
2018-04-15T05:01:05.171Z,976.43
2018-04-15T05:02:05.506Z,976.42
2018-04-15T05:03:05.972Z,976.42
2018-04-15T05:04:05.751Z,976.48
2018-04-15T05:05:06.019Z,976.53
2018-04-15T05:06:05.757Z,976.48
2018-04-15T05:07:06.303Z,976.36
2018-04-15T05:08:05.921Z,976.44
2018-04-15T05:09:05.175Z,976.44
2018-04-15T05:10:05.633Z,976.44
2018-04-15T05:11:05.823Z,976.33
2018-04-15T05:12:05.099Z,976.32
2018-04-15T05:13:06.229Z,976.21
2018-04-15T05:14:10.363Z,976.38
2018-04-15T05:15:05.971Z,976.32
2018-04-15T05:16:05.968Z,976.32
2018-04-15T05:17:05.960Z,976.26
2018-04-15T05:18:05.064Z,976.32
2018-04-15T05:19:05.448Z,976.31
2018-04-15T05:20:05.302Z,976.11
2018-04-15T05:21:06.000Z,976.22
2018-04-15T05:22:05.197Z,976.34
2018-04-15T05:23:05.566Z,976.30
2018-04-15T05:24:05.667Z,976.30
2018-04-15T05:25:05.551Z,976.24
2018-04-15T05:26:05.550Z,976.16
2018-04-15T05:27:05.678Z,976.07
2018-04-15T05:28:05.712Z,976.09
2018-04-15T05:29:05.978Z,976.00
2018-04-15T05:30:05.767Z,976.14
2018-04-15T05:31:05.938Z,976.05
2018-04-15T05:32:10.008Z,975.94
2018-04-15T05:33:06.245Z,976.10
2018-04-15T05:34:06.806Z,976.01
2018-04-15T05:35:05.754Z,975.95
2018-04-15T05:36:05.649Z,976.01
2018-04-15T05:37:05.159Z,976.03
2018-04-15T05:38:05.974Z,976.03
2018-04-15T05:39:05.747Z,976.06
2018-04-15T05:40:06.070Z,976.03
2018-04-15T05:41:05.173Z,976.02
2018-04-15T05:42:05.222Z,975.99
2018-04-15T05:43:06.078Z,975.94
2018-04-15T05:44:05.685Z,976.05
2018-04-15T05:45:05.674Z,975.93
2018-04-15T05:46:05.485Z,975.87
2018-04-15T05:47:05.400Z,975.93
2018-04-15T05:48:05.679Z,975.87
2018-04-15T05:49:05.578Z,975.98
2018-04-15T05:50:05.900Z,975.92
2018-04-15T05:51:05.296Z,975.95
2018-04-15T05:52:05.286Z,976.00
2018-04-15T05:53:05.580Z,975.91
2018-04-15T05:54:05.549Z,976.00
2018-04-15T05:55:05.485Z,976.11
2018-04-15T05:56:05.605Z,976.05
2018-04-15T05:57:05.406Z,975.93
2018-04-15T05:58:05.236Z,975.93
2018-04-15T05:59:05.446Z,975.90
2018-04-15T06:00:06.330Z,976.01
2018-04-15T06:01:05.769Z,975.98
2018-04-15T06:02:05.125Z,975.87
2018-04-15T06:03:05.100Z,975.92
2018-04-15T06:04:05.188Z,975.92
2018-04-15T06:05:05.681Z,975.83
2018-04-15T06:06:05.261Z,975.92
2018-04-15T06:07:05.698Z,975.91
2018-04-15T06:08:08.837Z,975.83
2018-04-15T06:09:05.626Z,975.88
2018-04-15T06:10:05.306Z,975.71
2018-04-15T06:11:10.684Z,975.88
2018-04-15T06:12:06.060Z,975.77
2018-04-15T06:13:06.047Z,975.82
2018-04-15T06:14:05.580Z,975.82
2018-04-15T06:15:05.863Z,975.85
2018-04-15T06:16:05.181Z,975.82
2018-04-15T06:17:05.936Z,975.77
2018-04-15T06:18:05.012Z,975.76
2018-04-15T06:19:05.152Z,975.74
2018-04-15T06:20:10.214Z,975.59
2018-04-15T06:21:05.380Z,975.65
2018-04-15T06:22:05.521Z,975.62
2018-04-15T06:23:05.543Z,975.48
2018-04-15T06:24:10.810Z,975.50
2018-04-15T06:25:10.948Z,975.45
2018-04-15T06:26:05.210Z,975.59
2018-04-15T06:27:06.085Z,975.50
2018-04-15T06:28:05.718Z,975.58
2018-04-15T06:29:10.534Z,975.52
2018-04-15T06:30:05.671Z,975.61
2018-04-15T06:31:06.037Z,975.46
2018-04-15T06:32:06.096Z,975.43
2018-04-15T06:33:05.338Z,975.43
2018-04-15T06:34:05.376Z,975.54
2018-04-15T06:35:05.532Z,975.54
2018-04-15T06:36:05.863Z,975.43
2018-04-15T06:37:05.739Z,975.60
2018-04-15T06:38:06.122Z,975.57
2018-04-15T06:39:06.142Z,975.40
2018-04-15T06:40:05.115Z,975.42
2018-04-15T06:41:05.532Z,975.39
2018-04-15T06:42:05.837Z,975.39
2018-04-15T06:43:05.804Z,975.26
2018-04-15T06:44:05.978Z,975.33
2018-04-15T06:45:06.006Z,975.14
2018-04-15T06:46:05.478Z,975.28
2018-04-15T06:47:05.632Z,975.25
2018-04-15T06:48:05.940Z,975.30
2018-04-15T06:49:05.346Z,975.24
2018-04-15T06:50:05.133Z,975.27
2018-04-15T06:51:05.929Z,975.21
2018-04-15T06:52:05.998Z,975.15
2018-04-15T06:53:05.671Z,975.09
2018-04-15T06:54:05.926Z,975.12
2018-04-15T06:55:05.366Z,975.09
2018-04-15T06:56:05.917Z,974.98
2018-04-15T06:57:05.067Z,975.18
2018-04-15T06:58:06.181Z,974.95
2018-04-15T06:59:06.467Z,975.20
2018-04-15T07:00:05.344Z,975.05
2018-04-15T07:01:05.849Z,975.02
2018-04-15T07:02:05.523Z,975.11
2018-04-15T07:03:05.756Z,974.99
2018-04-15T07:04:06.365Z,975.13
2018-04-15T07:05:05.557Z,975.03
2018-04-15T07:06:07.170Z,974.84
2018-04-15T07:07:05.403Z,975.11
2018-04-15T07:08:05.778Z,974.92
2018-04-15T07:09:05.712Z,974.94
2018-04-15T07:10:05.704Z,974.96
2018-04-15T07:11:05.493Z,975.18
2018-04-15T07:12:05.629Z,974.95
2018-04-15T07:13:05.963Z,975.09
2018-04-15T07:14:05.402Z,975.14
2018-04-15T07:15:05.150Z,975.02
2018-04-15T07:16:05.911Z,975.01
2018-04-15T07:17:10.742Z,974.84
2018-04-15T07:18:05.604Z,974.92
2018-04-15T07:19:05.721Z,974.86
2018-04-15T07:20:05.267Z,974.89
2018-04-15T07:21:06.844Z,974.94
2018-04-15T07:22:05.771Z,974.98
2018-04-15T07:23:05.097Z,974.85
2018-04-15T07:24:05.837Z,974.93
2018-04-15T07:25:06.038Z,974.84
2018-04-15T07:26:06.124Z,974.92
2018-04-15T07:27:05.950Z,974.91
2018-04-15T07:28:05.495Z,975.02
2018-04-15T07:29:05.771Z,974.91
2018-04-15T07:30:05.668Z,974.90
2018-04-15T07:31:05.130Z,974.93
2018-04-15T07:32:05.986Z,974.92
2018-04-15T07:33:05.152Z,974.95
2018-04-15T07:34:06.080Z,974.99
2018-04-15T07:35:06.021Z,974.91
2018-04-15T07:36:05.646Z,975.02
2018-04-15T07:37:05.816Z,975.10
2018-04-15T07:38:05.415Z,975.24
2018-04-15T07:39:06.101Z,975.09
2018-04-15T07:40:05.385Z,975.14
2018-04-15T07:41:05.424Z,975.00
2018-04-15T07:42:05.616Z,975.02
2018-04-15T07:43:05.809Z,975.11
2018-04-15T07:44:05.339Z,975.16
2018-04-15T07:45:05.407Z,975.04
2018-04-15T07:46:05.226Z,975.16
2018-04-15T07:47:05.307Z,975.24
2018-04-15T07:48:05.742Z,975.24
2018-04-15T07:49:05.975Z,975.18
2018-04-15T07:50:05.197Z,975.18
2018-04-15T07:51:05.404Z,975.32
2018-04-15T07:52:06.053Z,975.32
2018-04-15T07:53:05.391Z,975.26
2018-04-15T07:54:05.253Z,975.33
2018-04-15T07:55:05.395Z,975.36
2018-04-15T07:56:05.897Z,975.44
2018-04-15T07:57:05.119Z,975.47
2018-04-15T07:58:05.284Z,975.47
2018-04-15T07:59:05.295Z,975.49
2018-04-15T08:00:06.028Z,975.43
2018-04-15T08:01:05.717Z,975.46
2018-04-15T08:02:05.824Z,975.43
2018-04-15T08:03:05.772Z,975.40
2018-04-15T08:04:05.164Z,975.46
2018-04-15T08:05:05.744Z,975.43
2018-04-15T08:06:05.896Z,975.40
2018-04-15T08:07:06.309Z,975.37
2018-04-15T08:08:05.419Z,975.57
2018-04-15T08:09:05.537Z,975.45
2018-04-15T08:10:10.677Z,975.31
2018-04-15T08:11:05.714Z,975.38
2018-04-15T08:12:12.041Z,975.31
2018-04-15T08:13:05.253Z,975.44
2018-04-15T08:14:05.929Z,975.38
2018-04-15T08:15:05.783Z,975.35
2018-04-15T08:16:05.886Z,975.33
2018-04-15T08:17:05.924Z,975.27
2018-04-15T08:18:06.312Z,975.32
2018-04-15T08:19:05.468Z,975.32
2018-04-15T08:20:05.403Z,975.29
2018-04-15T08:21:05.801Z,975.29
2018-04-15T08:22:05.109Z,975.11
2018-04-15T08:23:05.192Z,975.23
2018-04-15T08:24:05.658Z,975.22
2018-04-15T08:25:05.950Z,975.28
2018-04-15T08:26:10.332Z,975.16
2018-04-15T08:27:05.473Z,975.28
2018-04-15T08:28:06.465Z,975.22
2018-04-15T08:29:05.628Z,975.31
2018-04-15T08:30:05.508Z,975.22
2018-04-15T08:31:05.041Z,975.22
2018-04-15T08:32:05.235Z,975.28
2018-04-15T08:33:05.718Z,975.13
2018-04-15T08:34:05.675Z,975.13
2018-04-15T08:35:05.127Z,975.16
2018-04-15T08:36:07.047Z,975.01
2018-04-15T08:37:05.345Z,975.04
2018-04-15T08:38:04.970Z,975.04
2018-04-15T08:39:05.676Z,974.95
2018-04-15T08:40:05.210Z,974.98
2018-04-15T08:41:05.406Z,975.01
2018-04-15T08:42:05.328Z,974.98
2018-04-15T08:43:05.942Z,975.03
2018-04-15T08:44:05.299Z,975.00
2018-04-15T08:45:05.136Z,975.03
2018-04-15T08:46:05.048Z,974.97
2018-04-15T08:47:05.387Z,975.12
2018-04-15T08:48:05.728Z,975.03
2018-04-15T08:49:05.732Z,975.00
2018-04-15T08:50:05.907Z,974.86
2018-04-15T08:51:05.940Z,974.89
2018-04-15T08:52:05.783Z,974.94
2018-04-15T08:53:05.334Z,974.89
2018-04-15T08:54:05.558Z,974.80
2018-04-15T08:55:05.298Z,974.91
2018-04-15T08:56:05.409Z,974.79
2018-04-15T08:57:05.274Z,974.82
2018-04-15T08:58:05.253Z,974.91
2018-04-15T08:59:05.027Z,974.85
2018-04-15T09:00:05.111Z,974.85
2018-04-15T09:01:05.225Z,974.77
2018-04-15T09:02:06.000Z,974.74
2018-04-15T09:03:05.250Z,974.74
2018-04-15T09:04:05.315Z,974.68
2018-04-15T09:05:05.143Z,974.83
2018-04-15T09:06:06.253Z,974.77
2018-04-15T09:07:04.969Z,974.71
2018-04-15T09:08:05.425Z,974.77
2018-04-15T09:09:05.141Z,974.77
2018-04-15T09:10:05.782Z,974.68
2018-04-15T09:11:05.373Z,974.62
2018-04-15T09:12:10.224Z,974.62
2018-04-15T09:13:05.526Z,974.64
2018-04-15T09:14:05.532Z,974.50
2018-04-15T09:15:05.458Z,974.59
2018-04-15T09:16:06.039Z,974.50
2018-04-15T09:17:06.437Z,974.53
2018-04-15T09:18:05.657Z,974.35
2018-04-15T09:19:05.455Z,974.47
2018-04-15T09:20:04.879Z,974.35
2018-04-15T09:21:05.683Z,974.52
2018-04-15T09:22:05.114Z,974.38
2018-04-15T09:23:05.322Z,974.41
2018-04-15T09:24:05.328Z,974.46
2018-04-15T09:25:06.044Z,974.35
2018-04-15T09:26:10.924Z,974.37
2018-04-15T09:27:05.201Z,974.40
2018-04-15T09:28:05.093Z,974.37
2018-04-15T09:29:05.315Z,974.42
2018-04-15T09:30:05.210Z,974.22
2018-04-15T09:31:04.920Z,974.36
2018-04-15T09:32:05.537Z,974.44
2018-04-15T09:33:05.720Z,974.38
2018-04-15T09:34:05.585Z,974.29
2018-04-15T09:35:05.484Z,974.26
2018-04-15T09:36:05.177Z,974.37
2018-04-15T09:37:06.005Z,974.40
2018-04-15T09:38:06.024Z,974.33
2018-04-15T09:39:05.209Z,974.24
2018-04-15T09:40:05.287Z,974.36
2018-04-15T09:41:04.992Z,974.35
2018-04-15T09:42:10.583Z,974.23
2018-04-15T09:43:05.724Z,974.38
2018-04-15T09:44:05.448Z,974.29
2018-04-15T09:45:05.136Z,974.37
2018-04-15T09:46:05.701Z,974.34
2018-04-15T09:47:05.010Z,974.31
2018-04-15T09:48:05.488Z,974.42
2018-04-15T09:49:05.222Z,974.28
2018-04-15T09:50:05.817Z,974.56
2018-04-15T09:51:05.858Z,974.30
2018-04-15T09:52:05.716Z,974.30
2018-04-15T09:53:05.373Z,974.33
2018-04-15T09:54:04.986Z,974.30
2018-04-15T09:55:05.605Z,974.29
2018-04-15T09:56:05.674Z,974.23
2018-04-15T09:57:05.496Z,974.29
2018-04-15T09:58:06.166Z,974.32
2018-04-15T09:59:06.334Z,974.23
2018-04-15T10:00:05.610Z,974.20
2018-04-15T10:01:05.524Z,974.25
2018-04-15T10:02:05.746Z,974.31
2018-04-15T10:03:05.183Z,974.31
2018-04-15T10:04:05.981Z,974.25
2018-04-15T10:05:05.543Z,974.19
2018-04-15T10:06:05.313Z,974.25
2018-04-15T10:07:06.031Z,974.28
2018-04-15T10:08:05.656Z,974.39
2018-04-15T10:09:05.232Z,974.25
2018-04-15T10:10:05.356Z,974.19
2018-04-15T10:11:05.548Z,974.27
2018-04-15T10:12:05.331Z,974.22
2018-04-15T10:13:05.389Z,974.27
2018-04-15T10:14:05.183Z,974.24
2018-04-15T10:15:05.540Z,974.36
2018-04-15T10:16:05.160Z,974.24
2018-04-15T10:17:05.375Z,974.15
2018-04-15T10:18:04.946Z,974.32
2018-04-15T10:19:05.735Z,974.32
2018-04-15T10:20:05.597Z,974.26
2018-04-15T10:21:05.723Z,974.25
2018-04-15T10:22:05.444Z,974.31
2018-04-15T10:23:05.549Z,974.28
2018-04-15T10:24:05.599Z,974.13
2018-04-15T10:25:05.990Z,974.21
2018-04-15T10:26:05.422Z,974.13
2018-04-15T10:27:05.449Z,974.15
2018-04-15T10:28:10.448Z,974.12
2018-04-15T10:29:05.762Z,974.12
2018-04-15T10:30:05.317Z,974.12
2018-04-15T10:31:04.940Z,974.14
2018-04-15T10:32:05.629Z,974.17
2018-04-15T10:33:05.096Z,974.05
2018-04-15T10:34:05.362Z,974.05
2018-04-15T10:35:05.769Z,974.08
2018-04-15T10:36:05.552Z,974.07
2018-04-15T10:37:05.151Z,974.04
2018-04-15T10:38:05.520Z,974.10
2018-04-15T10:39:05.627Z,973.99
2018-04-15T10:40:05.503Z,974.13
2018-04-15T10:41:05.510Z,974.05
2018-04-15T10:42:04.913Z,973.99
2018-04-15T10:43:05.888Z,974.05
2018-04-15T10:44:05.865Z,974.02
2018-04-15T10:45:05.669Z,974.05
2018-04-15T10:46:05.653Z,974.02
2018-04-15T10:47:05.499Z,974.08
2018-04-15T10:48:04.975Z,974.05
2018-04-15T10:49:05.932Z,974.05
2018-04-15T10:50:05.764Z,974.05
2018-04-15T10:51:05.514Z,973.99
2018-04-15T10:52:05.137Z,973.96
2018-04-15T10:53:05.925Z,973.96
2018-04-15T10:54:05.441Z,974.02
2018-04-15T10:55:05.201Z,973.91
2018-04-15T10:56:06.104Z,974.08
2018-04-15T10:57:05.164Z,974.05
2018-04-15T10:58:05.057Z,974.08
2018-04-15T10:59:05.310Z,973.93
2018-04-15T11:00:05.849Z,974.02
2018-04-15T11:01:05.332Z,974.02
2018-04-15T11:02:05.200Z,973.87
2018-04-15T11:03:05.292Z,973.93
2018-04-15T11:04:05.439Z,973.93
2018-04-15T11:05:05.982Z,973.81
2018-04-15T11:06:05.066Z,974.07
2018-04-15T11:07:05.039Z,973.92
2018-04-15T11:08:04.987Z,973.86
2018-04-15T11:09:05.116Z,974.00
2018-04-15T11:10:04.967Z,973.85
2018-04-15T11:11:05.381Z,973.97
2018-04-15T11:12:05.997Z,973.97
2018-04-15T11:13:05.400Z,973.99
2018-04-15T11:14:06.031Z,973.85
2018-04-15T11:15:05.616Z,973.90
2018-04-15T11:16:05.090Z,974.08
2018-04-15T11:17:05.029Z,973.99
2018-04-15T11:18:05.861Z,973.98
2018-04-15T11:19:05.216Z,973.87
2018-04-15T11:20:05.721Z,973.86
2018-04-15T11:21:05.723Z,973.86
2018-04-15T11:22:05.993Z,973.95
2018-04-15T11:23:06.033Z,973.74
2018-04-15T11:24:05.528Z,973.94
2018-04-15T11:25:05.417Z,973.79
2018-04-15T11:26:05.658Z,973.82
2018-04-15T11:27:05.557Z,973.79
2018-04-15T11:28:05.586Z,973.90
2018-04-15T11:29:05.241Z,973.73
2018-04-15T11:30:10.931Z,973.87
2018-04-15T11:31:05.399Z,973.81
2018-04-15T11:32:10.400Z,973.81
2018-04-15T11:33:05.371Z,973.80
2018-04-15T11:34:05.163Z,973.80
2018-04-15T11:35:05.719Z,973.89
2018-04-15T11:36:05.943Z,973.89
2018-04-15T11:37:06.027Z,973.74
2018-04-15T11:38:06.046Z,973.85
2018-04-15T11:39:04.957Z,973.82
2018-04-15T11:40:05.580Z,973.71
2018-04-15T11:41:05.091Z,973.82
2018-04-15T11:42:05.762Z,973.70
2018-04-15T11:43:05.433Z,973.73
2018-04-15T11:44:05.037Z,973.62
2018-04-15T11:45:05.700Z,973.67
2018-04-15T11:46:05.398Z,973.70
2018-04-15T11:47:05.571Z,973.76
2018-04-15T11:48:05.822Z,973.64
2018-04-15T11:49:05.409Z,973.70
2018-04-15T11:50:05.989Z,973.87
2018-04-15T11:51:05.368Z,973.75
2018-04-15T11:52:05.184Z,973.67
2018-04-15T11:53:05.452Z,973.55
2018-04-15T11:54:05.897Z,973.72
2018-04-15T11:55:04.922Z,973.72
2018-04-15T11:56:05.958Z,973.66
2018-04-15T11:57:06.082Z,973.63
2018-04-15T11:58:05.656Z,973.54
2018-04-15T11:59:05.407Z,973.66
2018-04-15T12:00:05.607Z,973.72
2018-04-15T12:01:05.014Z,973.81
2018-04-15T12:02:05.279Z,973.66
2018-04-15T12:03:05.890Z,973.57
2018-04-15T12:04:05.600Z,973.66
2018-04-15T12:05:04.896Z,973.60
2018-04-15T12:06:05.020Z,973.63
2018-04-15T12:07:10.331Z,973.60
2018-04-15T12:08:05.922Z,973.63
2018-04-15T12:09:10.829Z,973.60
2018-04-15T12:10:05.730Z,973.57
2018-04-15T12:11:05.459Z,973.49
2018-04-15T12:12:05.716Z,973.60
2018-04-15T12:13:05.601Z,973.46
2018-04-15T12:14:05.495Z,973.46
2018-04-15T12:15:05.251Z,973.41
2018-04-15T12:16:05.853Z,973.41
2018-04-15T12:17:05.638Z,973.38
2018-04-15T12:18:05.952Z,973.38
2018-04-15T12:19:05.399Z,973.49
2018-04-15T12:20:05.424Z,973.43
2018-04-15T12:21:05.700Z,973.46
2018-04-15T12:22:05.841Z,973.46
2018-04-15T12:23:05.931Z,973.43
2018-04-15T12:24:05.576Z,973.37
2018-04-15T12:25:05.502Z,973.40
2018-04-15T12:26:05.011Z,973.28
2018-04-15T12:27:05.499Z,973.36
2018-04-15T12:28:05.269Z,973.33